Terminal Aerodrome Forecast
Issued by NWS

Current Version | Previous Version | Text Only | Print | Product List | Glossary On
Versions: 1 2 3 4 5 6 7 8 9 10 11 12 13 14 15
000
FTUS42 KMLB 300539
TAFSFB
TAF
KSFB 300539Z 3006/3106 VRB03KT P6SM FEW060 FEW120 SCT250
     FM301300 VRB05KT P6SM SCT020 BKN250
     FM302000 08010KT P6SM VCTS SCT050CB BKN070 BKN250
     FM310000 10005KT P6SM SCT080 BKN250=

USA.gov is the U.S. government's official web portal to all federal, state and local government web resources and services.